Terminal Aerodrome Forecast
Issued by NWS

Home | Current Version | Previous Version | Text Only | Print | Product List | Glossary On
Versions: 1 2 3 4 5 6 7 8 9 10 11 12 13 14 15 16 17
544
FTUS44 KLZK 292337
TAFHOT
TAF
KHOT 292337Z 3000/3024 33005KT P6SM SCT050 BKN250
     FM300100 VRB03KT P6SM VCTS FEW050CB SCT100
      TEMPO 3002/3005 VRB15G30KT 3SM TSRA BKN030CB OVC100
     FM300600 VRB03KT P6SM FEW050 SCT100 BKN250
      TEMPO 3009/3013 4SM BR FEW008
     FM301400 VRB05KT P6SM VCSH SCT025 BKN050 BKN100
     FM301800 25006KT P6SM VCTS SCT040CB BKN250=

USA.gov is the U.S. government's official web portal to all federal, state and local government web resources and services.